sensor_id;sensor_type;location;lat;lon;timestamp;P1;durP1;ratioP1;P2;durP2;ratioP2
18806;SDS011;9531;52.030;4.380;2022-10-04T00:02:19;8.32;;;2.10;;
18806;SDS011;9531;52.030;4.380;2022-10-04T00:04:52;3.65;;;1.77;;
18806;SDS011;9531;52.030;4.380;2022-10-04T00:07:25;6.78;;;2.50;;
18806;SDS011;9531;52.030;4.380;2022-10-04T00:09:57;4.75;;;2.30;;
18806;SDS011;9531;52.030;4.380;2022-10-04T00:12:27;6.13;;;2.25;;
18806;SDS011;9531;52.030;4.380;2022-10-04T00:14:59;3.08;;;1.85;;
18806;SDS011;9531;52.030;4.380;2022-10-04T00:17:29;5.43;;;2.10;;
18806;SDS011;9531;52.030;4.380;2022-10-04T00:20:01;3.30;;;1.70;;
18806;SDS011;9531;52.030;4.380;2022-10-04T00:22:30;3.10;;;2.10;;
18806;SDS011;9531;52.030;4.380;2022-10-04T00:30:41;8.98;;;2.42;;
18806;SDS011;9531;52.030;4.380;2022-10-04T00:33:08;8.25;;;2.38;;
18806;SDS011;9531;52.030;4.380;2022-10-04T00:35:47;5.40;;;2.35;;
18806;SDS011;9531;52.030;4.380;2022-10-04T00:38:16;5.93;;;2.33;;
18806;SDS011;9531;52.030;4.380;2022-10-04T00:40:51;6.97;;;2.20;;
18806;SDS011;9531;52.030;4.380;2022-10-04T00:43:22;4.22;;;2.20;;
18806;SDS011;9531;52.030;4.380;2022-10-04T00:45:53;4.65;;;2.30;;
18806;SDS011;9531;52.030;4.380;2022-10-04T00:48:37;4.13;;;2.33;;
18806;SDS011;9531;52.030;4.380;2022-10-04T00:51:12;3.33;;;2.05;;
18806;SDS011;9531;52.030;4.380;2022-10-04T00:53:54;4.63;;;2.90;;
18806;SDS011;9531;52.030;4.380;2022-10-04T00:56:31;2.97;;;2.05;;
18806;SDS011;9531;52.030;4.380;2022-10-04T00:59:05;3.60;;;2.03;;
18806;SDS011;9531;52.030;4.380;2022-10-04T01:01:37;6.63;;;2.53;;
18806;SDS011;9531;52.030;4.380;2022-10-04T01:04:05;5.18;;;2.15;;
18806;SDS011;9531;52.030;4.380;2022-10-04T01:06:42;2.85;;;2.05;;
18806;SDS011;9531;52.030;4.380;2022-10-04T01:09:10;4.03;;;2.03;;
18806;SDS011;9531;52.030;4.380;2022-10-04T01:11:40;4.10;;;2.45;;
18806;SDS011;9531;52.030;4.380;2022-10-04T01:14:12;3.25;;;2.20;;
18806;SDS011;9531;52.030;4.380;2022-10-04T01:16:46;4.25;;;2.30;;
18806;SDS011;9531;52.030;4.380;2022-10-04T01:22:08;5.15;;;2.45;;
18806;SDS011;9531;52.030;4.380;2022-10-04T01:24:38;4.68;;;2.67;;
18806;SDS011;9531;52.030;4.380;2022-10-04T01:29:59;3.42;;;2.05;;
18806;SDS011;9531;52.030;4.380;2022-10-04T01:32:28;3.28;;;1.98;;
18806;SDS011;9531;52.030;4.380;2022-10-04T01:34:56;6.63;;;2.60;;
18806;SDS011;9531;52.030;4.380;2022-10-04T01:37:23;3.38;;;2.17;;
18806;SDS011;9531;52.030;4.380;2022-10-04T01:39:51;4.38;;;2.40;;
18806;SDS011;9531;52.030;4.380;2022-10-04T01:42:21;5.10;;;2.67;;
18806;SDS011;9531;52.030;4.380;2022-10-04T01:44:53;11.68;;;2.42;;
18806;SDS011;9531;52.030;4.380;2022-10-04T01:47:27;4.20;;;2.20;;
18806;SDS011;9531;52.030;4.380;2022-10-04T01:50:00;3.95;;;2.20;;
18806;SDS011;9531;52.030;4.380;2022-10-04T01:52:32;3.55;;;2.08;;
18806;SDS011;9531;52.030;4.380;2022-10-04T01:55:03;4.30;;;2.30;;
18806;SDS011;9531;52.030;4.380;2022-10-04T01:57:34;4.70;;;2.33;;
18806;SDS011;9531;52.030;4.380;2022-10-04T02:00:04;4.97;;;2.35;;
18806;SDS011;9531;52.030;4.380;2022-10-04T02:02:34;5.40;;;2.92;;
18806;SDS011;9531;52.030;4.380;2022-10-04T02:05:04;3.40;;;2.08;;
18806;SDS011;9531;52.030;4.380;2022-10-04T02:07:35;3.13;;;2.28;;
18806;SDS011;9531;52.030;4.380;2022-10-04T02:10:07;5.90;;;2.80;;
18806;SDS011;9531;52.030;4.380;2022-10-04T02:12:37;3.17;;;2.40;;
18806;SDS011;9531;52.030;4.380;2022-10-04T02:15:10;6.13;;;3.33;;
18806;SDS011;9531;52.030;4.380;2022-10-04T02:17:39;5.18;;;2.58;;
18806;SDS011;9531;52.030;4.380;2022-10-04T02:20:09;4.55;;;2.35;;
18806;SDS011;9531;52.030;4.380;2022-10-04T02:22:39;5.72;;;3.55;;
18806;SDS011;9531;52.030;4.380;2022-10-04T02:25:09;3.42;;;2.67;;
18806;SDS011;9531;52.030;4.380;2022-10-04T02:27:37;5.00;;;2.88;;
18806;SDS011;9531;52.030;4.380;2022-10-04T02:30:07;6.82;;;3.40;;
18806;SDS011;9531;52.030;4.380;2022-10-04T02:32:36;5.65;;;2.80;;
18806;SDS011;9531;52.030;4.380;2022-10-04T02:35:25;4.90;;;2.75;;
18806;SDS011;9531;52.030;4.380;2022-10-04T02:38:00;3.53;;;2.40;;
18806;SDS011;9531;52.030;4.380;2022-10-04T02:40:37;7.65;;;2.88;;
18806;SDS011;9531;52.030;4.380;2022-10-04T02:43:11;4.53;;;2.83;;
18806;SDS011;9531;52.030;4.380;2022-10-04T02:45:43;4.22;;;2.65;;
18806;SDS011;9531;52.030;4.380;2022-10-04T02:48:21;4.40;;;2.92;;
18806;SDS011;9531;52.030;4.380;2022-10-04T02:50:55;6.82;;;2.83;;
18806;SDS011;9531;52.030;4.380;2022-10-04T02:53:32;7.50;;;3.47;;
18806;SDS011;9531;52.030;4.380;2022-10-04T02:56:08;8.18;;;4.65;;
18806;SDS011;9531;52.030;4.380;2022-10-04T02:58:36;9.05;;;3.85;;
18806;SDS011;9531;52.030;4.380;2022-10-04T03:01:05;4.35;;;2.90;;
18806;SDS011;9531;52.030;4.380;2022-10-04T03:03:33;7.55;;;3.72;;
18806;SDS011;9531;52.030;4.380;2022-10-04T03:06:13;5.68;;;3.38;;
18806;SDS011;9531;52.030;4.380;2022-10-04T03:08:43;4.82;;;2.55;;
18806;SDS011;9531;52.030;4.380;2022-10-04T03:11:14;4.32;;;2.53;;
18806;SDS011;9531;52.030;4.380;2022-10-04T03:13:43;4.40;;;2.78;;
18806;SDS011;9531;52.030;4.380;2022-10-04T03:16:12;8.48;;;2.92;;
18806;SDS011;9531;52.030;4.380;2022-10-04T03:18:40;4.82;;;3.25;;
18806;SDS011;9531;52.030;4.380;2022-10-04T03:21:08;5.15;;;2.80;;
18806;SDS011;9531;52.030;4.380;2022-10-04T03:23:38;5.20;;;3.28;;
18806;SDS011;9531;52.030;4.380;2022-10-04T03:26:09;8.82;;;3.00;;
18806;SDS011;9531;52.030;4.380;2022-10-04T03:28:46;4.95;;;2.63;;
18806;SDS011;9531;52.030;4.380;2022-10-04T03:31:13;9.25;;;4.80;;
18806;SDS011;9531;52.030;4.380;2022-10-04T03:33:43;4.63;;;3.30;;
18806;SDS011;9531;52.030;4.380;2022-10-04T03:36:11;8.27;;;3.50;;
18806;SDS011;9531;52.030;4.380;2022-10-04T03:38:41;6.15;;;3.30;;
18806;SDS011;9531;52.030;4.380;2022-10-04T03:41:09;13.68;;;5.00;;
18806;SDS011;9531;52.030;4.380;2022-10-04T03:43:40;4.43;;;3.60;;
18806;SDS011;9531;52.030;4.380;2022-10-04T03:46:10;10.68;;;5.20;;
18806;SDS011;9531;52.030;4.380;2022-10-04T03:48:39;4.72;;;2.80;;
18806;SDS011;9531;52.030;4.380;2022-10-04T03:51:12;5.82;;;3.35;;
18806;SDS011;9531;52.030;4.380;2022-10-04T03:53:42;4.57;;;2.92;;
18806;SDS011;9531;52.030;4.380;2022-10-04T03:56:11;9.30;;;3.90;;
18806;SDS011;9531;52.030;4.380;2022-10-04T03:58:43;7.93;;;3.45;;
18806;SDS011;9531;52.030;4.380;2022-10-04T04:01:13;6.90;;;3.67;;
18806;SDS011;9531;52.030;4.380;2022-10-04T04:03:52;4.47;;;2.90;;
18806;SDS011;9531;52.030;4.380;2022-10-04T04:06:24;6.40;;;3.38;;
18806;SDS011;9531;52.030;4.380;2022-10-04T04:08:55;5.18;;;3.33;;
18806;SDS011;9531;52.030;4.380;2022-10-04T04:11:24;5.43;;;3.30;;
18806;SDS011;9531;52.030;4.380;2022-10-04T04:14:00;5.68;;;2.90;;
18806;SDS011;9531;52.030;4.380;2022-10-04T04:16:31;4.20;;;3.03;;
18806;SDS011;9531;52.030;4.380;2022-10-04T04:19:00;7.05;;;3.63;;
18806;SDS011;9531;52.030;4.380;2022-10-04T04:21:28;6.22;;;3.60;;
18806;SDS011;9531;52.030;4.380;2022-10-04T04:23:57;5.55;;;3.70;;
18806;SDS011;9531;52.030;4.380;2022-10-04T04:26:31;10.20;;;3.70;;
18806;SDS011;9531;52.030;4.380;2022-10-04T04:29:04;4.28;;;3.38;;
18806;SDS011;9531;52.030;4.380;2022-10-04T04:31:35;6.55;;;3.53;;
18806;SDS011;9531;52.030;4.380;2022-10-04T04:34:14;8.13;;;4.45;;
18806;SDS011;9531;52.030;4.380;2022-10-04T04:36:43;7.18;;;3.88;;
18806;SDS011;9531;52.030;4.380;2022-10-04T04:39:12;8.73;;;3.63;;
18806;SDS011;9531;52.030;4.380;2022-10-04T04:42:02;7.57;;;3.65;;
18806;SDS011;9531;52.030;4.380;2022-10-04T04:44:50;7.85;;;3.83;;
18806;SDS011;9531;52.030;4.380;2022-10-04T04:47:30;10.43;;;4.45;;
18806;SDS011;9531;52.030;4.380;2022-10-04T04:50:03;7.35;;;4.00;;
18806;SDS011;9531;52.030;4.380;2022-10-04T04:52:32;8.60;;;3.53;;
18806;SDS011;9531;52.030;4.380;2022-10-04T04:55:01;12.15;;;4.82;;
18806;SDS011;9531;52.030;4.380;2022-10-04T04:57:29;8.10;;;3.75;;
18806;SDS011;9531;52.030;4.380;2022-10-04T04:59:59;7.53;;;3.58;;
18806;SDS011;9531;52.030;4.380;2022-10-04T05:02:28;8.10;;;4.50;;
18806;SDS011;9531;52.030;4.380;2022-10-04T05:05:16;5.28;;;3.25;;
18806;SDS011;9531;52.030;4.380;2022-10-04T05:07:44;10.82;;;4.15;;
18806;SDS011;9531;52.030;4.380;2022-10-04T05:10:18;9.60;;;4.60;;
18806;SDS011;9531;52.030;4.380;2022-10-04T05:12:47;8.25;;;3.88;;
18806;SDS011;9531;52.030;4.380;2022-10-04T05:15:16;10.25;;;4.97;;
18806;SDS011;9531;52.030;4.380;2022-10-04T05:17:43;9.88;;;5.47;;
18806;SDS011;9531;52.030;4.380;2022-10-04T05:20:11;10.02;;;5.28;;
18806;SDS011;9531;52.030;4.380;2022-10-04T05:22:40;9.30;;;5.72;;
18806;SDS011;9531;52.030;4.380;2022-10-04T05:25:12;8.93;;;4.30;;
18806;SDS011;9531;52.030;4.380;2022-10-04T05:27:43;11.00;;;6.20;;
18806;SDS011;9531;52.030;4.380;2022-10-04T05:30:12;10.65;;;5.15;;
18806;SDS011;9531;52.030;4.380;2022-10-04T05:32:51;14.30;;;5.68;;
18806;SDS011;9531;52.030;4.380;2022-10-04T05:35:22;7.35;;;4.13;;
18806;SDS011;9531;52.030;4.380;2022-10-04T05:38:02;15.13;;;5.00;;
18806;SDS011;9531;52.030;4.380;2022-10-04T05:40:38;11.25;;;4.97;;
18806;SDS011;9531;52.030;4.380;2022-10-04T05:43:20;12.85;;;5.22;;
18806;SDS011;9531;52.030;4.380;2022-10-04T05:46:05;8.98;;;4.40;;
18806;SDS011;9531;52.030;4.380;2022-10-04T05:48:40;8.98;;;4.28;;
18806;SDS011;9531;52.030;4.380;2022-10-04T05:51:11;7.88;;;5.30;;
18806;SDS011;9531;52.030;4.380;2022-10-04T05:53:40;5.15;;;3.50;;
18806;SDS011;9531;52.030;4.380;2022-10-04T05:56:11;6.93;;;4.50;;
18806;SDS011;9531;52.030;4.380;2022-10-04T05:58:54;6.28;;;3.45;;
18806;SDS011;9531;52.030;4.380;2022-10-04T06:01:33;6.60;;;3.30;;
18806;SDS011;9531;52.030;4.380;2022-10-04T06:04:23;6.90;;;4.43;;
18806;SDS011;9531;52.030;4.380;2022-10-04T06:06:59;13.73;;;4.97;;
18806;SDS011;9531;52.030;4.380;2022-10-04T06:09:40;5.95;;;3.65;;
18806;SDS011;9531;52.030;4.380;2022-10-04T06:12:41;13.13;;;5.97;;
18806;SDS011;9531;52.030;4.380;2022-10-04T06:15:26;9.88;;;4.55;;
18806;SDS011;9531;52.030;4.380;2022-10-04T06:18:14;10.48;;;5.05;;
18806;SDS011;9531;52.030;4.380;2022-10-04T06:23:54;11.88;;;5.15;;
18806;SDS011;9531;52.030;4.380;2022-10-04T06:26:27;7.10;;;3.58;;
18806;SDS011;9531;52.030;4.380;2022-10-04T06:29:01;6.50;;;4.32;;
18806;SDS011;9531;52.030;4.380;2022-10-04T06:34:43;8.80;;;3.88;;
18806;SDS011;9531;52.030;4.380;2022-10-04T06:37:33;7.80;;;4.57;;
18806;SDS011;9531;52.030;4.380;2022-10-04T06:40:40;7.05;;;3.67;;
18806;SDS011;9531;52.030;4.380;2022-10-04T06:43:20;9.70;;;5.80;;
18806;SDS011;9531;52.030;4.380;2022-10-04T06:45:59;7.20;;;4.07;;
18806;SDS011;9531;52.030;4.380;2022-10-04T06:48:45;7.88;;;4.85;;
18806;SDS011;9531;52.030;4.380;2022-10-04T06:51:31;9.77;;;5.57;;
18806;SDS011;9531;52.030;4.380;2022-10-04T06:54:23;13.57;;;6.43;;
18806;SDS011;9531;52.030;4.380;2022-10-04T06:57:20;14.07;;;5.13;;
18806;SDS011;9531;52.030;4.380;2022-10-04T07:00:06;19.27;;;5.00;;
18806;SDS011;9531;52.030;4.380;2022-10-04T07:02:39;12.25;;;5.75;;
18806;SDS011;9531;52.030;4.380;2022-10-04T07:05:14;3.60;;;2.63;;
18806;SDS011;9531;52.030;4.380;2022-10-04T07:07:55;5.80;;;3.45;;
18806;SDS011;9531;52.030;4.380;2022-10-04T07:10:35;4.35;;;2.85;;
18806;SDS011;9531;52.030;4.380;2022-10-04T07:13:27;9.65;;;4.60;;
18806;SDS011;9531;52.030;4.380;2022-10-04T07:16:01;9.32;;;5.57;;
18806;SDS011;9531;52.030;4.380;2022-10-04T07:18:33;9.00;;;5.90;;
18806;SDS011;9531;52.030;4.380;2022-10-04T07:21:04;11.52;;;5.75;;
18806;SDS011;9531;52.030;4.380;2022-10-04T07:23:36;9.85;;;5.13;;
18806;SDS011;9531;52.030;4.380;2022-10-04T07:26:15;9.32;;;5.53;;
18806;SDS011;9531;52.030;4.380;2022-10-04T07:28:50;12.95;;;5.82;;
18806;SDS011;9531;52.030;4.380;2022-10-04T07:31:39;5.65;;;4.18;;
18806;SDS011;9531;52.030;4.380;2022-10-04T07:34:08;7.72;;;2.85;;
18806;SDS011;9531;52.030;4.380;2022-10-04T07:36:41;8.95;;;4.88;;
18806;SDS011;9531;52.030;4.380;2022-10-04T07:39:13;7.80;;;4.78;;
18806;SDS011;9531;52.030;4.380;2022-10-04T07:41:46;9.90;;;4.82;;
18806;SDS011;9531;52.030;4.380;2022-10-04T07:44:18;9.98;;;5.15;;
18806;SDS011;9531;52.030;4.380;2022-10-04T07:46:54;8.82;;;4.72;;
18806;SDS011;9531;52.030;4.380;2022-10-04T07:49:26;7.72;;;4.10;;
18806;SDS011;9531;52.030;4.380;2022-10-04T07:55:06;7.47;;;3.90;;
18806;SDS011;9531;52.030;4.380;2022-10-04T07:57:46;5.93;;;4.15;;
18806;SDS011;9531;52.030;4.380;2022-10-04T08:00:20;7.63;;;4.28;;
18806;SDS011;9531;52.030;4.380;2022-10-04T08:02:57;9.30;;;4.15;;
18806;SDS011;9531;52.030;4.380;2022-10-04T08:05:38;10.75;;;4.65;;
18806;SDS011;9531;52.030;4.380;2022-10-04T08:08:14;8.15;;;4.65;;
18806;SDS011;9531;52.030;4.380;2022-10-04T08:10:52;6.32;;;4.43;;
18806;SDS011;9531;52.030;4.380;2022-10-04T08:13:32;4.90;;;3.65;;
18806;SDS011;9531;52.030;4.380;2022-10-04T08:16:12;5.95;;;3.70;;
18806;SDS011;9531;52.030;4.380;2022-10-04T08:18:50;9.52;;;5.00;;
18806;SDS011;9531;52.030;4.380;2022-10-04T08:21:31;7.80;;;4.95;;
18806;SDS011;9531;52.030;4.380;2022-10-04T08:24:10;7.45;;;4.63;;
18806;SDS011;9531;52.030;4.380;2022-10-04T08:26:51;7.68;;;4.95;;
18806;SDS011;9531;52.030;4.380;2022-10-04T08:29:37;9.32;;;5.97;;
18806;SDS011;9531;52.030;4.380;2022-10-04T08:35:30;12.38;;;8.15;;
18806;SDS011;9531;52.030;4.380;2022-10-04T08:38:05;13.82;;;8.80;;
18806;SDS011;9531;52.030;4.380;2022-10-04T08:44:01;15.57;;;10.35;;
18806;SDS011;9531;52.030;4.380;2022-10-04T08:47:08;17.13;;;11.18;;
18806;SDS011;9531;52.030;4.380;2022-10-04T08:50:20;21.33;;;13.60;;
18806;SDS011;9531;52.030;4.380;2022-10-04T08:53:13;26.02;;;13.05;;
18806;SDS011;9531;52.030;4.380;2022-10-04T08:56:08;25.92;;;14.23;;
18806;SDS011;9531;52.030;4.380;2022-10-04T08:58:49;20.77;;;11.73;;
18806;SDS011;9531;52.030;4.380;2022-10-04T09:04:45;29.42;;;16.02;;
18806;SDS011;9531;52.030;4.380;2022-10-04T09:07:34;30.10;;;17.10;;
18806;SDS011;9531;52.030;4.380;2022-10-04T09:10:32;23.63;;;13.57;;
18806;SDS011;9531;52.030;4.380;2022-10-04T09:13:22;39.83;;;21.40;;
18806;SDS011;9531;52.030;4.380;2022-10-04T09:16:02;48.95;;;24.08;;
18806;SDS011;9531;52.030;4.380;2022-10-04T09:18:48;86.18;;;40.83;;
18806;SDS011;9531;52.030;4.380;2022-10-04T09:21:24;50.60;;;24.48;;
18806;SDS011;9531;52.030;4.380;2022-10-04T09:24:07;49.30;;;24.08;;
18806;SDS011;9531;52.030;4.380;2022-10-04T09:27:09;52.60;;;25.48;;
18806;SDS011;9531;52.030;4.380;2022-10-04T09:29:59;28.25;;;15.88;;
18806;SDS011;9531;52.030;4.380;2022-10-04T09:32:49;43.20;;;20.17;;
18806;SDS011;9531;52.030;4.380;2022-10-04T09:35:45;56.63;;;27.48;;
18806;SDS011;9531;52.030;4.380;2022-10-04T09:38:40;79.93;;;33.67;;
18806;SDS011;9531;52.030;4.380;2022-10-04T09:41:36;57.78;;;26.15;;
18806;SDS011;9531;52.030;4.380;2022-10-04T09:44:27;73.68;;;31.63;;
18806;SDS011;9531;52.030;4.380;2022-10-04T09:47:25;46.65;;;23.35;;
18806;SDS011;9531;52.030;4.380;2022-10-04T09:50:15;53.90;;;25.00;;
18806;SDS011;9531;52.030;4.380;2022-10-04T09:53:07;59.30;;;27.27;;
18806;SDS011;9531;52.030;4.380;2022-10-04T09:56:01;44.20;;;22.77;;
18806;SDS011;9531;52.030;4.380;2022-10-04T09:59:05;44.90;;;22.15;;
18806;SDS011;9531;52.030;4.380;2022-10-04T10:01:57;48.53;;;24.25;;
18806;SDS011;9531;52.030;4.380;2022-10-04T10:04:59;57.50;;;26.58;;
18806;SDS011;9531;52.030;4.380;2022-10-04T10:07:37;39.83;;;21.70;;
18806;SDS011;9531;52.030;4.380;2022-10-04T10:10:15;47.58;;;22.90;;
18806;SDS011;9531;52.030;4.380;2022-10-04T10:13:23;72.88;;;33.08;;
18806;SDS011;9531;52.030;4.380;2022-10-04T10:16:14;87.88;;;36.60;;
18806;SDS011;9531;52.030;4.380;2022-10-04T10:18:57;182.82;;;92.10;;
18806;SDS011;9531;52.030;4.380;2022-10-04T10:21:49;78.40;;;33.00;;
18806;SDS011;9531;52.030;4.380;2022-10-04T10:24:37;60.55;;;27.85;;
18806;SDS011;9531;52.030;4.380;2022-10-04T10:27:30;70.05;;;30.88;;
18806;SDS011;9531;52.030;4.380;2022-10-04T10:30:23;84.85;;;35.28;;
18806;SDS011;9531;52.030;4.380;2022-10-04T10:36:05;164.23;;;73.47;;
18806;SDS011;9531;52.030;4.380;2022-10-04T10:39:03;123.05;;;46.88;;
18806;SDS011;9531;52.030;4.380;2022-10-04T10:41:52;78.43;;;32.95;;
18806;SDS011;9531;52.030;4.380;2022-10-04T10:44:39;89.80;;;37.42;;
18806;SDS011;9531;52.030;4.380;2022-10-04T10:47:28;98.15;;;39.63;;
18806;SDS011;9531;52.030;4.380;2022-10-04T10:50:14;98.78;;;39.78;;
18806;SDS011;9531;52.030;4.380;2022-10-04T10:56:06;101.72;;;40.97;;
18806;SDS011;9531;52.030;4.380;2022-10-04T11:05:25;90.82;;;36.92;;
18806;SDS011;9531;52.030;4.380;2022-10-04T11:08:47;115.75;;;43.08;;
18806;SDS011;9531;52.030;4.380;2022-10-04T11:11:42;109.75;;;42.70;;
18806;SDS011;9531;52.030;4.380;2022-10-04T11:14:34;98.00;;;39.45;;
18806;SDS011;9531;52.030;4.380;2022-10-04T11:17:43;103.28;;;41.22;;
18806;SDS011;9531;52.030;4.380;2022-10-04T11:27:11;154.75;;;58.28;;
18806;SDS011;9531;52.030;4.380;2022-10-04T11:29:48;117.18;;;45.10;;
18806;SDS011;9531;52.030;4.380;2022-10-04T11:32:29;111.68;;;43.35;;
18806;SDS011;9531;52.030;4.380;2022-10-04T11:35:39;86.18;;;34.75;;
18806;SDS011;9531;52.030;4.380;2022-10-04T11:38:43;109.90;;;42.20;;
18806;SDS011;9531;52.030;4.380;2022-10-04T11:41:25;82.10;;;33.83;;
18806;SDS011;9531;52.030;4.380;2022-10-04T11:47:31;54.58;;;26.02;;
18806;SDS011;9531;52.030;4.380;2022-10-04T11:50:24;80.25;;;31.45;;
18806;SDS011;9531;52.030;4.380;2022-10-04T11:53:12;63.08;;;28.63;;
18806;SDS011;9531;52.030;4.380;2022-10-04T11:55:56;80.32;;;33.35;;
18806;SDS011;9531;52.030;4.380;2022-10-04T11:58:42;69.47;;;29.88;;
18806;SDS011;9531;52.030;4.380;2022-10-04T12:01:26;70.25;;;30.65;;
18806;SDS011;9531;52.030;4.380;2022-10-04T12:04:23;76.32;;;31.77;;
18806;SDS011;9531;52.030;4.380;2022-10-04T12:07:23;50.78;;;24.83;;
18806;SDS011;9531;52.030;4.380;2022-10-04T12:19:12;54.55;;;25.83;;
18806;SDS011;9531;52.030;4.380;2022-10-04T12:22:12;65.32;;;28.95;;
18806;SDS011;9531;52.030;4.380;2022-10-04T12:25:10;73.05;;;31.63;;
18806;SDS011;9531;52.030;4.380;2022-10-04T12:27:59;65.53;;;29.85;;
18806;SDS011;9531;52.030;4.380;2022-10-04T12:31:05;77.93;;;33.03;;
18806;SDS011;9531;52.030;4.380;2022-10-04T12:33:43;100.03;;;39.35;;
18806;SDS011;9531;52.030;4.380;2022-10-04T12:42:06;82.72;;;34.10;;
18806;SDS011;9531;52.030;4.380;2022-10-04T12:44:49;63.83;;;28.40;;
18806;SDS011;9531;52.030;4.380;2022-10-04T12:50:23;69.63;;;30.25;;
18806;SDS011;9531;52.030;4.380;2022-10-04T12:52:58;90.70;;;35.97;;
18806;SDS011;9531;52.030;4.380;2022-10-04T12:58:50;72.75;;;29.92;;
18806;SDS011;9531;52.030;4.380;2022-10-04T13:01:30;83.72;;;32.90;;
18806;SDS011;9531;52.030;4.380;2022-10-04T13:04:08;75.72;;;31.40;;
18806;SDS011;9531;52.030;4.380;2022-10-04T13:06:47;70.22;;;30.25;;
18806;SDS011;9531;52.030;4.380;2022-10-04T13:09:23;68.68;;;29.65;;
18806;SDS011;9531;52.030;4.380;2022-10-04T13:12:06;79.93;;;32.35;;
18806;SDS011;9531;52.030;4.380;2022-10-04T13:14:48;81.15;;;31.55;;
18806;SDS011;9531;52.030;4.380;2022-10-04T13:17:33;77.72;;;32.00;;
18806;SDS011;9531;52.030;4.380;2022-10-04T13:23:00;59.15;;;25.88;;
18806;SDS011;9531;52.030;4.380;2022-10-04T13:25:39;58.47;;;27.60;;
18806;SDS011;9531;52.030;4.380;2022-10-04T13:28:23;81.05;;;33.15;;
18806;SDS011;9531;52.030;4.380;2022-10-04T13:30:56;77.85;;;31.63;;
18806;SDS011;9531;52.030;4.380;2022-10-04T13:33:30;74.47;;;31.20;;
18806;SDS011;9531;52.030;4.380;2022-10-04T13:36:03;93.68;;;36.42;;
18806;SDS011;9531;52.030;4.380;2022-10-04T13:38:47;91.55;;;36.17;;
18806;SDS011;9531;52.030;4.380;2022-10-04T13:41:44;69.03;;;29.67;;
18806;SDS011;9531;52.030;4.380;2022-10-04T13:44:28;88.78;;;35.00;;
18806;SDS011;9531;52.030;4.380;2022-10-04T13:47:15;116.35;;;42.97;;
18806;SDS011;9531;52.030;4.380;2022-10-04T13:49:57;65.97;;;28.30;;
18806;SDS011;9531;52.030;4.380;2022-10-04T13:52:36;59.22;;;26.40;;
18806;SDS011;9531;52.030;4.380;2022-10-04T13:55:30;50.90;;;24.02;;
18806;SDS011;9531;52.030;4.380;2022-10-04T13:58:24;50.30;;;23.10;;
18806;SDS011;9531;52.030;4.380;2022-10-04T14:01:04;62.28;;;27.15;;
18806;SDS011;9531;52.030;4.380;2022-10-04T14:03:57;54.63;;;23.88;;
18806;SDS011;9531;52.030;4.380;2022-10-04T14:06:42;51.88;;;24.33;;
18806;SDS011;9531;52.030;4.380;2022-10-04T14:09:39;54.78;;;24.70;;
18806;SDS011;9531;52.030;4.380;2022-10-04T14:12:24;49.22;;;23.33;;
18806;SDS011;9531;52.030;4.380;2022-10-04T14:18:14;48.13;;;23.05;;
18806;SDS011;9531;52.030;4.380;2022-10-04T14:24:05;42.70;;;21.48;;
18806;SDS011;9531;52.030;4.380;2022-10-04T14:26:49;40.03;;;20.27;;
18806;SDS011;9531;52.030;4.380;2022-10-04T14:29:38;35.08;;;17.63;;
18806;SDS011;9531;52.030;4.380;2022-10-04T14:35:30;37.88;;;19.80;;
18806;SDS011;9531;52.030;4.380;2022-10-04T14:38:08;30.35;;;17.83;;
18806;SDS011;9531;52.030;4.380;2022-10-04T14:44:08;28.90;;;16.30;;
18806;SDS011;9531;52.030;4.380;2022-10-04T14:46:58;26.85;;;16.20;;
18806;SDS011;9531;52.030;4.380;2022-10-04T14:49:42;29.27;;;16.60;;
18806;SDS011;9531;52.030;4.380;2022-10-04T14:52:26;31.27;;;17.60;;
18806;SDS011;9531;52.030;4.380;2022-10-04T14:55:06;33.50;;;17.73;;
18806;SDS011;9531;52.030;4.380;2022-10-04T14:57:51;43.25;;;21.98;;
18806;SDS011;9531;52.030;4.380;2022-10-04T15:00:28;37.38;;;19.45;;
18806;SDS011;9531;52.030;4.380;2022-10-04T15:03:07;31.73;;;18.05;;
18806;SDS011;9531;52.030;4.380;2022-10-04T15:11:45;27.33;;;16.13;;
18806;SDS011;9531;52.030;4.380;2022-10-04T15:14:35;17.48;;;11.68;;
18806;SDS011;9531;52.030;4.380;2022-10-04T15:17:06;19.35;;;11.75;;
18806;SDS011;9531;52.030;4.380;2022-10-04T15:22:30;22.85;;;12.75;;
18806;SDS011;9531;52.030;4.380;2022-10-04T15:28:11;19.25;;;11.55;;
18806;SDS011;9531;52.030;4.380;2022-10-04T15:31:04;23.73;;;13.40;;
18806;SDS011;9531;52.030;4.380;2022-10-04T15:33:39;22.55;;;12.98;;
18806;SDS011;9531;52.030;4.380;2022-10-04T15:39:27;21.85;;;13.50;;
18806;SDS011;9531;52.030;4.380;2022-10-04T15:42:08;21.45;;;13.20;;
18806;SDS011;9531;52.030;4.380;2022-10-04T15:44:55;17.60;;;11.80;;
18806;SDS011;9531;52.030;4.380;2022-10-04T15:47:56;17.98;;;11.63;;
18806;SDS011;9531;52.030;4.380;2022-10-04T15:50:52;16.63;;;11.02;;
18806;SDS011;9531;52.030;4.380;2022-10-04T15:53:37;12.57;;;9.25;;
18806;SDS011;9531;52.030;4.380;2022-10-04T15:56:12;15.40;;;9.23;;
18806;SDS011;9531;52.030;4.380;2022-10-04T15:59:05;26.08;;;12.90;;
18806;SDS011;9531;52.030;4.380;2022-10-04T16:01:54;16.77;;;11.50;;
18806;SDS011;9531;52.030;4.380;2022-10-04T16:04:40;21.73;;;12.90;;
18806;SDS011;9531;52.030;4.380;2022-10-04T16:07:23;14.48;;;10.20;;
18806;SDS011;9531;52.030;4.380;2022-10-04T16:10:05;10.13;;;7.40;;
18806;SDS011;9531;52.030;4.380;2022-10-04T16:12:54;15.90;;;10.90;;
18806;SDS011;9531;52.030;4.380;2022-10-04T16:15:43;16.90;;;10.95;;
18806;SDS011;9531;52.030;4.380;2022-10-04T16:18:25;19.65;;;11.77;;
18806;SDS011;9531;52.030;4.380;2022-10-04T16:21:05;13.95;;;8.95;;
18806;SDS011;9531;52.030;4.380;2022-10-04T16:23:40;13.65;;;8.95;;
18806;SDS011;9531;52.030;4.380;2022-10-04T16:26:08;15.90;;;10.90;;
18806;SDS011;9531;52.030;4.380;2022-10-04T16:31:46;10.02;;;7.40;;
18806;SDS011;9531;52.030;4.380;2022-10-04T16:37:14;11.32;;;7.97;;
18806;SDS011;9531;52.030;4.380;2022-10-04T16:39:53;14.10;;;7.78;;
18806;SDS011;9531;52.030;4.380;2022-10-04T16:42:25;11.70;;;7.63;;
18806;SDS011;9531;52.030;4.380;2022-10-04T16:44:58;10.00;;;7.13;;
18806;SDS011;9531;52.030;4.380;2022-10-04T16:47:29;6.75;;;5.45;;
18806;SDS011;9531;52.030;4.380;2022-10-04T16:50:00;8.02;;;6.28;;
18806;SDS011;9531;52.030;4.380;2022-10-04T16:52:37;9.55;;;6.35;;
18806;SDS011;9531;52.030;4.380;2022-10-04T16:55:26;10.57;;;5.65;;
18806;SDS011;9531;52.030;4.380;2022-10-04T17:04:32;8.07;;;4.93;;
18806;SDS011;9531;52.030;4.380;2022-10-04T17:07:21;6.38;;;5.10;;
18806;SDS011;9531;52.030;4.380;2022-10-04T17:09:58;7.50;;;4.32;;
18806;SDS011;9531;52.030;4.380;2022-10-04T17:12:41;6.90;;;4.43;;
18806;SDS011;9531;52.030;4.380;2022-10-04T17:15:22;5.75;;;4.07;;
18806;SDS011;9531;52.030;4.380;2022-10-04T17:18:00;6.07;;;4.40;;
18806;SDS011;9531;52.030;4.380;2022-10-04T17:20:43;5.78;;;4.38;;
18806;SDS011;9531;52.030;4.380;2022-10-04T17:23:24;8.13;;;5.05;;
18806;SDS011;9531;52.030;4.380;2022-10-04T17:26:06;6.85;;;5.10;;
18806;SDS011;9531;52.030;4.380;2022-10-04T17:28:42;6.57;;;5.30;;
18806;SDS011;9531;52.030;4.380;2022-10-04T17:31:19;6.72;;;4.78;;
18806;SDS011;9531;52.030;4.380;2022-10-04T17:33:53;6.35;;;4.57;;
18806;SDS011;9531;52.030;4.380;2022-10-04T17:36:36;7.57;;;5.55;;
18806;SDS011;9531;52.030;4.380;2022-10-04T17:39:13;7.15;;;5.03;;
18806;SDS011;9531;52.030;4.380;2022-10-04T17:41:51;6.15;;;4.93;;
18806;SDS011;9531;52.030;4.380;2022-10-04T17:44:32;6.47;;;4.57;;
18806;SDS011;9531;52.030;4.380;2022-10-04T17:47:10;6.05;;;4.88;;
18806;SDS011;9531;52.030;4.380;2022-10-04T17:49:44;8.10;;;6.20;;
18806;SDS011;9531;52.030;4.380;2022-10-04T17:52:41;6.45;;;4.70;;
18806;SDS011;9531;52.030;4.380;2022-10-04T17:55:32;7.97;;;4.90;;
18806;SDS011;9531;52.030;4.380;2022-10-04T17:58:10;7.82;;;5.13;;
18806;SDS011;9531;52.030;4.380;2022-10-04T18:00:46;5.45;;;4.28;;
18806;SDS011;9531;52.030;4.380;2022-10-04T18:03:17;6.60;;;4.22;;